AFR6264 LFMD-LFBE
Flight info
| Callsign | AFR6264 |
|---|---|
| Flight time | N/A |
| Altitude | 20000 |
| Route | RUBIT DCT TRETS DCT ETOMA DCT BADAM DCT IBDER DCT BE090 DCT BE096 DCT BE092 DCT IBE09 DCT FBE09 DCT BE280 DCT BE270 |
| Aircraft | A319/M-SDE3FGHIRWY/LB1 |
Departure
| Time | N/A |
|---|---|
| Airport | Cannes Mandelieu Airport (LFMD) |
Arrival
| Time | 2026-05-05 20:11 |
|---|---|
| Airport | Bergerac Dordogne-Périgord airport (LFBE) |
| Time | Latitude | Longitude | Altitude | Speed | Heading |
|---|---|---|---|---|---|
| 2026-05-05 19:18 | 43.32122 | 6.06090 | 16186 ft | 375 kts | 286° |
| 2026-05-05 19:18 | 43.33063 | 6.02742 | 16443 ft | 376 kts | 286° |
| 2026-05-05 19:18 | 43.34005 | 5.99383 | 16700 ft | 377 kts | 286° |
| 2026-05-05 19:19 | 43.34949 | 5.96008 | 16956 ft | 379 kts | 286° |
| 2026-05-05 19:19 | 43.35893 | 5.92623 | 17212 ft | 381 kts | 285° |
| 2026-05-05 19:19 | 43.36839 | 5.89219 | 17476 ft | 382 kts | 285° |
| 2026-05-05 19:19 | 43.37788 | 5.85801 | 17741 ft | 384 kts | 285° |
| 2026-05-05 19:20 | 43.38740 | 5.82366 | 18015 ft | 385 kts | 285° |
| 2026-05-05 19:20 | 43.39694 | 5.78916 | 18277 ft | 387 kts | 285° |
| 2026-05-05 19:20 | 43.40652 | 5.75450 | 18508 ft | 388 kts | 285° |
| 2026-05-05 19:20 | 43.41618 | 5.71981 | 18750 ft | 389 kts | 286° |
| 2026-05-05 19:21 | 43.42643 | 5.68529 | 19013 ft | 391 kts | 287° |
| 2026-05-05 19:21 | 43.43721 | 5.65088 | 19246 ft | 392 kts | 288° |
| 2026-05-05 19:21 | 43.44825 | 5.61650 | 19489 ft | 393 kts | 288° |
| 2026-05-05 19:21 | 43.45934 | 5.58207 | 19733 ft | 394 kts | 288° |
| 2026-05-05 19:22 | 43.47034 | 5.54756 | 19885 ft | 395 kts | 287° |
| 2026-05-05 19:22 | 43.48146 | 5.51203 | 19923 ft | 413 kts | 287° |
| 2026-05-05 19:22 | 43.49289 | 5.47499 | 19921 ft | 426 kts | 287° |
| 2026-05-05 19:22 | 43.50454 | 5.43725 | 19926 ft | 429 kts | 288° |
| 2026-05-05 19:23 | 43.51630 | 5.39937 | 19923 ft | 430 kts | 288° |
| 2026-05-05 19:23 | 43.52810 | 5.36146 | 19922 ft | 430 kts | 288° |
| 2026-05-05 19:23 | 43.53986 | 5.32360 | 19930 ft | 430 kts | 288° |
| 2026-05-05 19:23 | 43.55162 | 5.28563 | 19922 ft | 431 kts | 288° |
| 2026-05-05 19:24 | 43.56337 | 5.24762 | 19926 ft | 432 kts | 288° |
| 2026-05-05 19:24 | 43.57510 | 5.20949 | 19916 ft | 432 kts | 288° |
| 2026-05-05 19:24 | 43.58675 | 5.17139 | 19914 ft | 432 kts | 288° |
| 2026-05-05 19:24 | 43.59842 | 5.13321 | 19922 ft | 432 kts | 288° |
| 2026-05-05 19:25 | 43.61010 | 5.09504 | 19921 ft | 432 kts | 288° |
| 2026-05-05 19:25 | 43.62177 | 5.05683 | 19917 ft | 431 kts | 288° |
| 2026-05-05 19:25 | 43.63342 | 5.01872 | 19914 ft | 431 kts | 288° |
| 2026-05-05 19:25 | 43.64507 | 4.98057 | 19912 ft | 431 kts | 288° |
| 2026-05-05 19:26 | 43.65670 | 4.94241 | 19937 ft | 431 kts | 288° |
| 2026-05-05 19:26 | 43.66833 | 4.90422 | 19918 ft | 431 kts | 289° |
| 2026-05-05 19:26 | 43.67988 | 4.86593 | 19908 ft | 431 kts | 288° |
| 2026-05-05 19:26 | 43.69059 | 4.82726 | 19901 ft | 430 kts | 286° |
| 2026-05-05 19:27 | 43.70034 | 4.78872 | 19899 ft | 430 kts | 284° |
| 2026-05-05 19:27 | 43.70984 | 4.74900 | 19898 ft | 430 kts | 284° |
| 2026-05-05 19:27 | 43.71894 | 4.71021 | 19897 ft | 430 kts | 284° |
| 2026-05-05 19:27 | 43.72821 | 4.67093 | 19897 ft | 430 kts | 284° |
| 2026-05-05 19:28 | 43.73764 | 4.63162 | 19904 ft | 430 kts | 284° |
| 2026-05-05 19:28 | 43.74722 | 4.59235 | 19899 ft | 431 kts | 285° |
| 2026-05-05 19:28 | 43.75689 | 4.55309 | 19913 ft | 431 kts | 285° |
| 2026-05-05 19:28 | 43.76660 | 4.51382 | 19906 ft | 432 kts | 285° |
| 2026-05-05 19:29 | 43.77631 | 4.47448 | 19902 ft | 432 kts | 285° |
| 2026-05-05 19:29 | 43.78600 | 4.43505 | 19901 ft | 432 kts | 285° |
| 2026-05-05 19:29 | 43.79559 | 4.39567 | 19900 ft | 433 kts | 285° |
| 2026-05-05 19:29 | 43.80518 | 4.35614 | 19900 ft | 433 kts | 285° |
| 2026-05-05 19:30 | 43.81473 | 4.31669 | 19900 ft | 433 kts | 285° |
| 2026-05-05 19:30 | 43.82435 | 4.27715 | 19901 ft | 433 kts | 285° |
| 2026-05-05 19:30 | 43.83399 | 4.23759 | 19902 ft | 433 kts | 285° |
| 2026-05-05 19:30 | 43.84361 | 4.19801 | 19903 ft | 433 kts | 285° |
| 2026-05-05 19:31 | 43.85320 | 4.15840 | 19927 ft | 433 kts | 285° |
| 2026-05-05 19:31 | 43.85951 | 4.13225 | 19928 ft | 433 kts | 285° |
| 2026-05-05 19:31 | 43.87225 | 4.07931 | 19930 ft | 432 kts | 285° |
| 2026-05-05 19:31 | 43.88175 | 4.03977 | 19928 ft | 432 kts | 285° |
| 2026-05-05 19:32 | 43.89120 | 4.00025 | 19923 ft | 432 kts | 285° |
| 2026-05-05 19:32 | 43.89744 | 3.97412 | 19921 ft | 432 kts | 285° |
| 2026-05-05 19:32 | 43.91007 | 3.92123 | 19920 ft | 432 kts | 285° |
| 2026-05-05 19:32 | 43.91633 | 3.89504 | 19919 ft | 432 kts | 285° |
| 2026-05-05 19:33 | 43.92582 | 3.85547 | 19925 ft | 432 kts | 285° |
| 2026-05-05 19:33 | 43.93526 | 3.81591 | 19925 ft | 432 kts | 285° |
| 2026-05-05 19:33 | 43.94467 | 3.77640 | 19936 ft | 432 kts | 284° |
| 2026-05-05 19:33 | 43.95394 | 3.73738 | 19931 ft | 432 kts | 284° |
| 2026-05-05 19:34 | 43.96332 | 3.69771 | 19929 ft | 432 kts | 284° |
| 2026-05-05 19:34 | 43.97269 | 3.65799 | 19935 ft | 432 kts | 284° |
| 2026-05-05 19:34 | 43.98200 | 3.61834 | 19925 ft | 432 kts | 284° |
| 2026-05-05 19:35 | 44.00062 | 3.53898 | 19910 ft | 432 kts | 284° |
| 2026-05-05 19:35 | 44.00997 | 3.49923 | 19917 ft | 433 kts | 284° |
| 2026-05-05 19:35 | 44.01930 | 3.45947 | 19924 ft | 433 kts | 284° |
| 2026-05-05 19:35 | 44.02858 | 3.41967 | 19922 ft | 433 kts | 284° |
| 2026-05-05 19:36 | 44.03785 | 3.37992 | 19921 ft | 432 kts | 284° |
| 2026-05-05 19:36 | 44.04713 | 3.34010 | 19925 ft | 433 kts | 284° |
| 2026-05-05 19:36 | 44.05641 | 3.30033 | 19925 ft | 433 kts | 284° |
| 2026-05-05 19:36 | 44.06567 | 3.26043 | 19926 ft | 433 kts | 284° |
| 2026-05-05 19:37 | 44.07489 | 3.22057 | 19928 ft | 433 kts | 284° |
| 2026-05-05 19:37 | 44.08410 | 3.18069 | 19936 ft | 433 kts | 284° |
| 2026-05-05 19:37 | 44.09371 | 3.14089 | 19937 ft | 434 kts | 286° |
| 2026-05-05 19:37 | 44.10435 | 3.10150 | 19942 ft | 436 kts | 288° |
| 2026-05-05 19:38 | 44.11566 | 3.06238 | 19946 ft | 436 kts | 288° |
| 2026-05-05 19:38 | 44.12728 | 3.02334 | 19954 ft | 437 kts | 289° |
| 2026-05-05 19:38 | 44.13891 | 2.98423 | 19940 ft | 437 kts | 289° |
| 2026-05-05 19:38 | 44.15035 | 2.94500 | 19931 ft | 438 kts | 289° |
| 2026-05-05 19:39 | 44.16157 | 2.90565 | 19919 ft | 438 kts | 288° |
| 2026-05-05 19:39 | 44.17261 | 2.86637 | 19675 ft | 435 kts | 288° |
| 2026-05-05 19:39 | 44.18359 | 2.82699 | 19502 ft | 435 kts | 288° |
| 2026-05-05 19:39 | 44.19451 | 2.78765 | 19292 ft | 434 kts | 288° |
| 2026-05-05 19:40 | 44.20537 | 2.74846 | 19071 ft | 433 kts | 288° |
| 2026-05-05 19:40 | 44.21625 | 2.70927 | 18856 ft | 432 kts | 288° |
| 2026-05-05 19:40 | 44.22710 | 2.67031 | 18652 ft | 431 kts | 288° |
| 2026-05-05 19:40 | 44.23791 | 2.63153 | 18437 ft | 427 kts | 288° |
| 2026-05-05 19:41 | 44.24860 | 2.59304 | 18219 ft | 424 kts | 288° |
| 2026-05-05 19:41 | 44.25921 | 2.55478 | 17976 ft | 422 kts | 288° |
| 2026-05-05 19:41 | 44.26976 | 2.51664 | 17730 ft | 420 kts | 288° |
| 2026-05-05 19:41 | 44.28029 | 2.47859 | 17489 ft | 419 kts | 288° |
| 2026-05-05 19:42 | 44.29075 | 2.44077 | 17243 ft | 417 kts | 288° |
| 2026-05-05 19:42 | 44.30113 | 2.40305 | 16995 ft | 415 kts | 288° |
| 2026-05-05 19:42 | 44.31144 | 2.36548 | 16757 ft | 413 kts | 288° |
| 2026-05-05 19:42 | 44.32157 | 2.32858 | 16524 ft | 411 kts | 288° |
| 2026-05-05 19:43 | 44.33181 | 2.29133 | 16291 ft | 410 kts | 288° |
| 2026-05-05 19:43 | 44.34196 | 2.25425 | 16065 ft | 408 kts | 288° |
| 2026-05-05 19:43 | 44.35203 | 2.21732 | 15835 ft | 406 kts | 288° |
| 2026-05-05 19:43 | 44.36204 | 2.18052 | 15605 ft | 400 kts | 288° |
| 2026-05-05 19:44 | 44.37175 | 2.14479 | 15373 ft | 387 kts | 288° |
| 2026-05-05 19:44 | 44.38115 | 2.11027 | 15151 ft | 373 kts | 288° |
| 2026-05-05 19:44 | 44.39025 | 2.07680 | 14926 ft | 365 kts | 288° |
| 2026-05-05 19:44 | 44.39920 | 2.04386 | 14706 ft | 362 kts | 288° |
| 2026-05-05 19:45 | 44.40808 | 2.01116 | 14489 ft | 355 kts | 289° |
| 2026-05-05 19:45 | 44.41671 | 1.97936 | 14270 ft | 343 kts | 289° |
| 2026-05-05 19:45 | 44.42504 | 1.94862 | 14052 ft | 333 kts | 289° |
| 2026-05-05 19:45 | 44.43314 | 1.91869 | 13836 ft | 324 kts | 289° |
| 2026-05-05 19:46 | 44.44099 | 1.88963 | 13617 ft | 315 kts | 289° |
| 2026-05-05 19:46 | 44.44854 | 1.86162 | 13372 ft | 308 kts | 289° |
| 2026-05-05 19:46 | 44.45593 | 1.83420 | 13136 ft | 301 kts | 289° |
| 2026-05-05 19:46 | 44.46324 | 1.80701 | 12890 ft | 295 kts | 289° |
| 2026-05-05 19:47 | 44.47040 | 1.78036 | 12631 ft | 287 kts | 289° |
| 2026-05-05 19:47 | 44.47733 | 1.75452 | 12289 ft | 281 kts | 289° |
| 2026-05-05 19:47 | 44.48416 | 1.72901 | 11913 ft | 278 kts | 289° |
| 2026-05-05 19:47 | 44.49091 | 1.70368 | 11570 ft | 277 kts | 289° |
| 2026-05-05 19:48 | 44.49764 | 1.67845 | 11218 ft | 275 kts | 289° |
| 2026-05-05 19:48 | 44.50430 | 1.65339 | 10858 ft | 274 kts | 289° |
| 2026-05-05 19:48 | 44.51096 | 1.62836 | 10523 ft | 273 kts | 289° |
| 2026-05-05 19:48 | 44.51757 | 1.60351 | 10181 ft | 272 kts | 289° |
| 2026-05-05 19:49 | 44.52415 | 1.57873 | 9830 ft | 270 kts | 289° |
| 2026-05-05 19:49 | 44.52847 | 1.56241 | 9589 ft | 270 kts | 289° |
| 2026-05-05 19:49 | 44.53716 | 1.52959 | 9088 ft | 267 kts | 289° |
| 2026-05-05 19:49 | 44.54362 | 1.50525 | 8713 ft | 265 kts | 289° |
| 2026-05-05 19:50 | 44.55002 | 1.48111 | 8361 ft | 263 kts | 289° |
| 2026-05-05 19:50 | 44.55637 | 1.45710 | 8000 ft | 262 kts | 289° |
| 2026-05-05 19:50 | 44.56272 | 1.43322 | 7641 ft | 260 kts | 289° |
| 2026-05-05 19:50 | 44.56900 | 1.40951 | 7280 ft | 259 kts | 289° |
| 2026-05-05 19:51 | 44.57525 | 1.38593 | 6941 ft | 257 kts | 289° |
| 2026-05-05 19:51 | 44.58147 | 1.36250 | 6594 ft | 256 kts | 290° |
| 2026-05-05 19:51 | 44.58766 | 1.33912 | 6238 ft | 254 kts | 290° |
| 2026-05-05 19:51 | 44.59376 | 1.31593 | 5882 ft | 253 kts | 290° |
| 2026-05-05 19:52 | 44.59980 | 1.29287 | 5520 ft | 251 kts | 290° |
| 2026-05-05 19:52 | 44.60579 | 1.26997 | 5156 ft | 249 kts | 290° |
| 2026-05-05 19:52 | 44.61171 | 1.24731 | 5003 ft | 246 kts | 290° |
| 2026-05-05 19:52 | 44.61759 | 1.22474 | 5019 ft | 246 kts | 290° |
| 2026-05-05 19:53 | 44.62349 | 1.20217 | 5013 ft | 247 kts | 290° |
| 2026-05-05 19:53 | 44.62932 | 1.17989 | 5014 ft | 246 kts | 290° |
| 2026-05-05 19:53 | 44.63522 | 1.15730 | 5021 ft | 246 kts | 290° |
| 2026-05-05 19:53 | 44.64112 | 1.13470 | 5018 ft | 247 kts | 289° |
| 2026-05-05 19:54 | 44.64704 | 1.11203 | 5023 ft | 247 kts | 290° |
| 2026-05-05 19:54 | 44.65301 | 1.08909 | 5016 ft | 247 kts | 289° |
| 2026-05-05 19:54 | 44.65892 | 1.06637 | 5028 ft | 247 kts | 289° |
| 2026-05-05 19:54 | 44.66543 | 1.04404 | 5016 ft | 247 kts | 295° |
| 2026-05-05 19:55 | 44.67317 | 1.02248 | 5022 ft | 247 kts | 296° |
| 2026-05-05 19:55 | 44.68097 | 1.00095 | 5017 ft | 244 kts | 296° |
| 2026-05-05 19:55 | 44.68826 | 0.98075 | 5014 ft | 219 kts | 296° |
| 2026-05-05 19:55 | 44.69480 | 0.96257 | 5020 ft | 207 kts | 296° |
| 2026-05-05 19:56 | 44.70133 | 0.94434 | 5015 ft | 206 kts | 296° |
| 2026-05-05 19:56 | 44.70775 | 0.92639 | 5019 ft | 206 kts | 296° |
| 2026-05-05 19:56 | 44.71409 | 0.90866 | 5020 ft | 205 kts | 296° |
| 2026-05-05 19:56 | 44.72050 | 0.89068 | 5020 ft | 206 kts | 296° |
| 2026-05-05 19:57 | 44.72692 | 0.87270 | 5016 ft | 205 kts | 296° |
| 2026-05-05 19:57 | 44.73124 | 0.86060 | 5016 ft | 205 kts | 296° |
| 2026-05-05 19:57 | 44.73972 | 0.83679 | 5010 ft | 205 kts | 296° |
| 2026-05-05 19:57 | 44.74610 | 0.81890 | 4857 ft | 204 kts | 296° |
| 2026-05-05 19:58 | 44.75247 | 0.80109 | 4540 ft | 203 kts | 296° |
| 2026-05-05 19:58 | 44.75878 | 0.78340 | 4241 ft | 202 kts | 296° |
| 2026-05-05 19:58 | 44.76509 | 0.76572 | 3951 ft | 201 kts | 296° |
| 2026-05-05 19:58 | 44.77133 | 0.74818 | 3655 ft | 200 kts | 296° |
| 2026-05-05 19:59 | 44.77750 | 0.73083 | 3407 ft | 195 kts | 296° |
| 2026-05-05 19:59 | 44.78344 | 0.71413 | 3267 ft | 186 kts | 296° |
| 2026-05-05 19:59 | 44.78910 | 0.69816 | 3140 ft | 178 kts | 296° |
| 2026-05-05 19:59 | 44.79460 | 0.68259 | 2903 ft | 176 kts | 295° |
| 2026-05-05 20:00 | 44.80005 | 0.66720 | 2653 ft | 175 kts | 296° |
| 2026-05-05 20:00 | 44.80538 | 0.65196 | 2528 ft | 173 kts | 292° |
| 2026-05-05 20:00 | 44.80926 | 0.63589 | 2512 ft | 174 kts | 283° |
| 2026-05-05 20:00 | 44.81117 | 0.61932 | 2510 ft | 174 kts | 275° |
| 2026-05-05 20:01 | 44.81115 | 0.60223 | 2513 ft | 175 kts | 265° |
| 2026-05-05 20:01 | 44.80913 | 0.58532 | 2512 ft | 176 kts | 257° |
| 2026-05-05 20:01 | 44.80511 | 0.56905 | 2511 ft | 177 kts | 247° |
| 2026-05-05 20:01 | 44.79988 | 0.55332 | 2507 ft | 177 kts | 247° |
| 2026-05-05 20:02 | 44.79480 | 0.53792 | 2507 ft | 171 kts | 247° |
| 2026-05-05 20:02 | 44.78986 | 0.52291 | 2504 ft | 168 kts | 247° |
| 2026-05-05 20:02 | 44.78496 | 0.50799 | 2508 ft | 168 kts | 247° |
| 2026-05-05 20:02 | 44.78005 | 0.49311 | 2510 ft | 168 kts | 247° |
| 2026-05-05 20:03 | 44.77515 | 0.47825 | 2509 ft | 167 kts | 247° |
| 2026-05-05 20:03 | 44.77026 | 0.46341 | 2510 ft | 167 kts | 247° |
| 2026-05-05 20:03 | 44.76538 | 0.44856 | 2508 ft | 167 kts | 247° |
| 2026-05-05 20:03 | 44.76049 | 0.43376 | 2508 ft | 167 kts | 247° |
| 2026-05-05 20:04 | 44.75561 | 0.41899 | 2510 ft | 167 kts | 247° |
| 2026-05-05 20:04 | 44.75079 | 0.40414 | 2508 ft | 167 kts | 251° |
| 2026-05-05 20:04 | 44.74773 | 0.38855 | 2507 ft | 165 kts | 262° |
| 2026-05-05 20:04 | 44.74709 | 0.37249 | 2509 ft | 164 kts | 274° |
| 2026-05-05 20:05 | 44.74795 | 0.35653 | 2507 ft | 164 kts | 275° |
| 2026-05-05 20:05 | 44.74879 | 0.34050 | 2509 ft | 164 kts | 274° |
| 2026-05-05 20:05 | 44.74961 | 0.32446 | 2516 ft | 164 kts | 274° |
| 2026-05-05 20:05 | 44.75043 | 0.30846 | 2513 ft | 165 kts | 275° |
| 2026-05-05 20:06 | 44.75245 | 0.29293 | 2505 ft | 165 kts | 294° |
| 2026-05-05 20:06 | 44.75979 | 0.28062 | 2514 ft | 167 kts | 324° |
| 2026-05-05 20:06 | 44.77064 | 0.27564 | 2575 ft | 166 kts | 354° |
| 2026-05-05 20:06 | 44.78218 | 0.27656 | 2552 ft | 166 kts | 0° |
| 2026-05-05 20:07 | 44.79364 | 0.27777 | 2539 ft | 164 kts | 0° |
| 2026-05-05 20:07 | 44.80504 | 0.27899 | 2533 ft | 164 kts | 0° |
| 2026-05-05 20:07 | 44.81635 | 0.28020 | 2531 ft | 163 kts | 360° |
| 2026-05-05 20:07 | 44.82755 | 0.28331 | 2499 ft | 170 kts | 24° |
| 2026-05-05 20:08 | 44.83520 | 0.29599 | 2522 ft | 177 kts | 70° |
| 2026-05-05 20:08 | 44.83564 | 0.31332 | 2557 ft | 179 kts | 95° |
| 2026-05-05 20:08 | 44.83464 | 0.33078 | 2538 ft | 179 kts | 94° |
| 2026-05-05 20:08 | 44.83367 | 0.34819 | 2537 ft | 178 kts | 94° |
| 2026-05-05 20:09 | 44.83273 | 0.36558 | 2504 ft | 179 kts | 94° |
| 2026-05-05 20:09 | 44.83176 | 0.38307 | 2285 ft | 179 kts | 94° |
| 2026-05-05 20:09 | 44.83072 | 0.40046 | 1957 ft | 178 kts | 95° |
| 2026-05-05 20:09 | 44.82956 | 0.41796 | 1557 ft | 182 kts | 95° |
| 2026-05-05 20:10 | 44.82877 | 0.43573 | 1192 ft | 181 kts | 93° |
| 2026-05-05 20:10 | 44.82820 | 0.45330 | 865 ft | 177 kts | 95° |
| 2026-05-05 20:10 | 44.82730 | 0.47024 | 682 ft | 171 kts | 95° |
| 2026-05-05 20:10 | 44.82617 | 0.48686 | 487 ft | 169 kts | 96° |
| 2026-05-05 20:11 | 44.82540 | 0.50327 | 307 ft | 169 kts | 94° |
| 2026-05-05 20:11 | 44.82444 | 0.51885 | 180 ft | 114 kts | 95° |
| 2026-05-05 20:11 | 44.82414 | 0.52468 | 172 ft | 38 kts | 94° |
| 2026-05-05 20:11 | 44.82388 | 0.52736 | 170 ft | 17 kts | 109° |
| 2026-05-05 20:12 | 44.82398 | 0.52745 | 170 ft | 2 kts | 340° |
| 2026-05-05 20:12 | 44.82405 | 0.52691 | 171 ft | 13 kts | 277° |
| 2026-05-05 20:12 | 44.82419 | 0.52463 | 172 ft | 31 kts | 274° |
| 2026-05-05 20:12 | 44.82433 | 0.52169 | 177 ft | 23 kts | 268° |
| 2026-05-05 20:13 | 44.82338 | 0.52044 | 178 ft | 23 kts | 191° |
| 2026-05-05 20:13 | 44.82294 | 0.51870 | 177 ft | 20 kts | 271° |
| 2026-05-05 20:13 | 44.82303 | 0.51689 | 179 ft | 18 kts | 275° |
| 2026-05-05 20:13 | 44.82310 | 0.51558 | 179 ft | 10 kts | 274° |
| 2026-05-05 20:14 | 44.82307 | 0.51459 | 179 ft | 10 kts | 234° |
| 2026-05-05 20:14 | 44.82283 | 0.51454 | 179 ft | 2 kts | 185° |
| 2026-05-05 20:14 | 44.82274 | 0.51453 | 179 ft | 0 kts | 185° |